Current Weather

Václav Havel Intl Apt

Prague, Czechia (LKPR)

Report from: Sunday, May 19, 2024 11:00 AM CEST
Current time: Sunday, May 19, 2024 11:13 AM CEST

Nearby weather – Weather history – Daily summaries
Weather forecast

Temperature16.0°C (60.8°F)
Dew point11.0°C (51.8°F)
Winds 4 kts (2.1 m/s, 4.6 mph) Vrb
Winds variableWinds variable
Visibility6.2 mi. (10 km)
Clouds Scattered clouds 1,800 ft. (549 m)
Altimeter29.88 in.Hg (1012 mB)
Relative humidity72 %
Density altitude345 ft. (105 m)
Remarks No significant changes expected in the next two hours
Flight conditions Visual Meteorological Conditions
Raw dataLKPR 190900Z VRB04KT 9999 SCT018 16/11 Q1012 NOSIG
An error has occurred. This application may no longer respond until reloaded. Reload 🗙